sensor_id;sensor_type;location;lat;lon;timestamp;P1;durP1;ratioP1;P2;durP2;ratioP2
18776;SDS011;9517;51.174;4.160;2024-03-29T00:00:01;7.03;;;1.40;;
18776;SDS011;9517;51.174;4.160;2024-03-29T00:02:28;5.70;;;1.00;;
18776;SDS011;9517;51.174;4.160;2024-03-29T00:04:54;8.63;;;1.30;;
18776;SDS011;9517;51.174;4.160;2024-03-29T00:07:22;8.13;;;1.30;;
18776;SDS011;9517;51.174;4.160;2024-03-29T00:09:49;5.73;;;1.03;;
18776;SDS011;9517;51.174;4.160;2024-03-29T00:12:15;8.73;;;1.00;;
18776;SDS011;9517;51.174;4.160;2024-03-29T00:14:41;11.60;;;1.70;;
18776;SDS011;9517;51.174;4.160;2024-03-29T00:17:09;11.33;;;1.53;;
18776;SDS011;9517;51.174;4.160;2024-03-29T00:19:35;9.17;;;1.30;;
18776;SDS011;9517;51.174;4.160;2024-03-29T00:22:01;5.47;;;1.27;;
18776;SDS011;9517;51.174;4.160;2024-03-29T00:24:27;6.90;;;1.13;;
18776;SDS011;9517;51.174;4.160;2024-03-29T00:26:54;11.93;;;1.43;;
18776;SDS011;9517;51.174;4.160;2024-03-29T00:29:26;10.93;;;1.67;;
18776;SDS011;9517;51.174;4.160;2024-03-29T00:31:52;11.73;;;1.50;;
18776;SDS011;9517;51.174;4.160;2024-03-29T00:34:20;11.73;;;1.57;;
18776;SDS011;9517;51.174;4.160;2024-03-29T00:36:46;7.27;;;1.27;;
18776;SDS011;9517;51.174;4.160;2024-03-29T00:39:12;7.87;;;1.40;;
18776;SDS011;9517;51.174;4.160;2024-03-29T00:41:38;11.27;;;1.50;;
18776;SDS011;9517;51.174;4.160;2024-03-29T00:44:04;6.67;;;1.13;;
18776;SDS011;9517;51.174;4.160;2024-03-29T00:46:31;8.47;;;1.27;;
18776;SDS011;9517;51.174;4.160;2024-03-29T00:48:57;10.03;;;1.23;;
18776;SDS011;9517;51.174;4.160;2024-03-29T00:51:24;12.23;;;1.47;;
18776;SDS011;9517;51.174;4.160;2024-03-29T00:53:51;4.77;;;1.10;;
18776;SDS011;9517;51.174;4.160;2024-03-29T00:56:17;7.83;;;1.33;;
18776;SDS011;9517;51.174;4.160;2024-03-29T00:58:44;7.03;;;1.00;;
18776;SDS011;9517;51.174;4.160;2024-03-29T01:01:10;5.33;;;1.00;;
18776;SDS011;9517;51.174;4.160;2024-03-29T01:03:36;7.90;;;1.53;;
18776;SDS011;9517;51.174;4.160;2024-03-29T01:06:04;7.47;;;1.13;;
18776;SDS011;9517;51.174;4.160;2024-03-29T01:08:32;5.37;;;1.10;;
18776;SDS011;9517;51.174;4.160;2024-03-29T01:10:58;8.93;;;1.20;;
18776;SDS011;9517;51.174;4.160;2024-03-29T01:13:24;5.60;;;1.00;;
18776;SDS011;9517;51.174;4.160;2024-03-29T01:15:50;7.70;;;1.20;;
18776;SDS011;9517;51.174;4.160;2024-03-29T01:18:16;10.03;;;1.70;;
18776;SDS011;9517;51.174;4.160;2024-03-29T01:20:42;8.03;;;1.10;;
18776;SDS011;9517;51.174;4.160;2024-03-29T01:23:08;9.03;;;1.27;;
18776;SDS011;9517;51.174;4.160;2024-03-29T01:25:36;5.93;;;0.93;;
18776;SDS011;9517;51.174;4.160;2024-03-29T01:28:02;5.50;;;1.50;;
18776;SDS011;9517;51.174;4.160;2024-03-29T01:30:29;9.87;;;1.43;;
18776;SDS011;9517;51.174;4.160;2024-03-29T01:32:55;5.33;;;1.23;;
18776;SDS011;9517;51.174;4.160;2024-03-29T01:35:21;5.03;;;1.00;;
18776;SDS011;9517;51.174;4.160;2024-03-29T01:37:47;3.60;;;0.97;;
18776;SDS011;9517;51.174;4.160;2024-03-29T01:40:13;6.93;;;1.00;;
18776;SDS011;9517;51.174;4.160;2024-03-29T01:42:41;6.00;;;1.10;;
18776;SDS011;9517;51.174;4.160;2024-03-29T01:45:07;5.20;;;0.80;;
18776;SDS011;9517;51.174;4.160;2024-03-29T01:47:35;5.10;;;0.83;;
18776;SDS011;9517;51.174;4.160;2024-03-29T01:50:02;5.97;;;0.90;;
18776;SDS011;9517;51.174;4.160;2024-03-29T01:52:30;7.17;;;1.20;;
18776;SDS011;9517;51.174;4.160;2024-03-29T01:54:58;7.30;;;1.23;;
18776;SDS011;9517;51.174;4.160;2024-03-29T01:57:26;4.40;;;0.60;;
18776;SDS011;9517;51.174;4.160;2024-03-29T01:59:55;7.30;;;1.00;;
18776;SDS011;9517;51.174;4.160;2024-03-29T02:02:23;5.40;;;0.90;;
18776;SDS011;9517;51.174;4.160;2024-03-29T02:04:50;4.40;;;0.80;;
18776;SDS011;9517;51.174;4.160;2024-03-29T02:07:18;6.50;;;1.20;;
18776;SDS011;9517;51.174;4.160;2024-03-29T02:09:45;3.63;;;0.80;;
18776;SDS011;9517;51.174;4.160;2024-03-29T02:12:12;5.23;;;1.10;;
18776;SDS011;9517;51.174;4.160;2024-03-29T02:14:40;6.10;;;1.10;;
18776;SDS011;9517;51.174;4.160;2024-03-29T02:17:09;2.70;;;0.87;;
18776;SDS011;9517;51.174;4.160;2024-03-29T02:19:36;6.03;;;1.23;;
18776;SDS011;9517;51.174;4.160;2024-03-29T02:22:03;4.87;;;0.80;;
18776;SDS011;9517;51.174;4.160;2024-03-29T02:24:33;2.97;;;0.60;;
18776;SDS011;9517;51.174;4.160;2024-03-29T02:27:01;2.17;;;0.50;;
18776;SDS011;9517;51.174;4.160;2024-03-29T02:29:29;4.20;;;0.70;;
18776;SDS011;9517;51.174;4.160;2024-03-29T02:31:57;6.60;;;1.00;;
18776;SDS011;9517;51.174;4.160;2024-03-29T02:34:24;2.70;;;0.67;;
18776;SDS011;9517;51.174;4.160;2024-03-29T02:36:52;5.17;;;0.93;;
18776;SDS011;9517;51.174;4.160;2024-03-29T02:39:19;4.23;;;0.73;;
18776;SDS011;9517;51.174;4.160;2024-03-29T02:41:48;3.23;;;0.50;;
18776;SDS011;9517;51.174;4.160;2024-03-29T02:44:15;3.93;;;0.50;;
18776;SDS011;9517;51.174;4.160;2024-03-29T02:46:42;2.00;;;0.47;;
18776;SDS011;9517;51.174;4.160;2024-03-29T02:49:09;1.07;;;0.40;;
18776;SDS011;9517;51.174;4.160;2024-03-29T02:51:35;3.17;;;0.60;;
18776;SDS011;9517;51.174;4.160;2024-03-29T02:54:05;1.07;;;0.30;;
18776;SDS011;9517;51.174;4.160;2024-03-29T02:56:31;1.53;;;0.40;;
18776;SDS011;9517;51.174;4.160;2024-03-29T02:59:02;1.10;;;0.50;;
18776;SDS011;9517;51.174;4.160;2024-03-29T03:01:29;3.47;;;0.63;;
18776;SDS011;9517;51.174;4.160;2024-03-29T03:03:56;3.20;;;0.70;;
18776;SDS011;9517;51.174;4.160;2024-03-29T03:06:22;2.87;;;0.50;;
18776;SDS011;9517;51.174;4.160;2024-03-29T03:08:49;4.47;;;0.60;;
18776;SDS011;9517;51.174;4.160;2024-03-29T03:11:34;3.17;;;0.60;;
18776;SDS011;9517;51.174;4.160;2024-03-29T03:14:03;1.87;;;0.50;;
18776;SDS011;9517;51.174;4.160;2024-03-29T03:16:30;5.17;;;0.60;;
18776;SDS011;9517;51.174;4.160;2024-03-29T03:18:57;2.93;;;0.50;;
18776;SDS011;9517;51.174;4.160;2024-03-29T03:21:23;1.53;;;0.40;;
18776;SDS011;9517;51.174;4.160;2024-03-29T03:23:51;3.40;;;0.60;;
18776;SDS011;9517;51.174;4.160;2024-03-29T03:26:17;3.77;;;0.80;;
18776;SDS011;9517;51.174;4.160;2024-03-29T03:28:44;2.50;;;0.50;;
18776;SDS011;9517;51.174;4.160;2024-03-29T03:31:11;2.07;;;0.43;;
18776;SDS011;9517;51.174;4.160;2024-03-29T03:33:44;4.60;;;0.60;;
18776;SDS011;9517;51.174;4.160;2024-03-29T03:36:10;2.80;;;0.60;;
18776;SDS011;9517;51.174;4.160;2024-03-29T03:38:38;3.97;;;1.00;;
18776;SDS011;9517;51.174;4.160;2024-03-29T03:41:04;3.73;;;0.93;;
18776;SDS011;9517;51.174;4.160;2024-03-29T03:43:32;3.73;;;0.77;;
18776;SDS011;9517;51.174;4.160;2024-03-29T03:46:00;5.97;;;0.80;;
18776;SDS011;9517;51.174;4.160;2024-03-29T03:48:29;5.27;;;0.80;;
18776;SDS011;9517;51.174;4.160;2024-03-29T03:50:55;5.03;;;0.90;;
18776;SDS011;9517;51.174;4.160;2024-03-29T03:53:22;4.03;;;0.80;;
18776;SDS011;9517;51.174;4.160;2024-03-29T03:55:49;8.13;;;1.40;;
18776;SDS011;9517;51.174;4.160;2024-03-29T03:58:16;8.17;;;1.80;;
18776;SDS011;9517;51.174;4.160;2024-03-29T04:00:42;6.10;;;1.50;;
18776;SDS011;9517;51.174;4.160;2024-03-29T04:03:10;7.53;;;1.30;;
18776;SDS011;9517;51.174;4.160;2024-03-29T04:05:37;9.43;;;1.80;;
18776;SDS011;9517;51.174;4.160;2024-03-29T04:08:05;9.83;;;1.90;;
18776;SDS011;9517;51.174;4.160;2024-03-29T04:10:31;9.17;;;1.97;;
18776;SDS011;9517;51.174;4.160;2024-03-29T04:12:58;9.20;;;1.93;;
18776;SDS011;9517;51.174;4.160;2024-03-29T04:15:24;6.53;;;1.50;;
18776;SDS011;9517;51.174;4.160;2024-03-29T04:17:52;11.90;;;2.03;;
18776;SDS011;9517;51.174;4.160;2024-03-29T04:20:18;8.97;;;1.80;;
18776;SDS011;9517;51.174;4.160;2024-03-29T04:22:47;9.80;;;2.40;;
18776;SDS011;9517;51.174;4.160;2024-03-29T04:25:14;12.13;;;1.87;;
18776;SDS011;9517;51.174;4.160;2024-03-29T04:27:41;8.03;;;1.70;;
18776;SDS011;9517;51.174;4.160;2024-03-29T04:30:08;8.73;;;1.87;;
18776;SDS011;9517;51.174;4.160;2024-03-29T04:32:35;8.93;;;2.03;;
18776;SDS011;9517;51.174;4.160;2024-03-29T04:35:01;11.60;;;2.03;;
18776;SDS011;9517;51.174;4.160;2024-03-29T04:37:29;6.67;;;1.70;;
18776;SDS011;9517;51.174;4.160;2024-03-29T04:39:57;9.03;;;2.13;;
18776;SDS011;9517;51.174;4.160;2024-03-29T04:42:25;9.03;;;1.90;;
18776;SDS011;9517;51.174;4.160;2024-03-29T04:44:52;10.40;;;1.90;;
18776;SDS011;9517;51.174;4.160;2024-03-29T04:47:19;9.87;;;2.17;;
18776;SDS011;9517;51.174;4.160;2024-03-29T04:49:46;8.47;;;1.53;;
18776;SDS011;9517;51.174;4.160;2024-03-29T04:52:13;15.23;;;2.60;;
18776;SDS011;9517;51.174;4.160;2024-03-29T04:54:40;7.53;;;2.10;;
18776;SDS011;9517;51.174;4.160;2024-03-29T04:57:10;7.77;;;1.47;;
18776;SDS011;9517;51.174;4.160;2024-03-29T04:59:38;10.60;;;1.43;;
18776;SDS011;9517;51.174;4.160;2024-03-29T05:02:05;9.17;;;1.70;;
18776;SDS011;9517;51.174;4.160;2024-03-29T05:04:32;8.23;;;1.50;;
18776;SDS011;9517;51.174;4.160;2024-03-29T05:06:59;7.90;;;2.27;;
18776;SDS011;9517;51.174;4.160;2024-03-29T05:09:30;6.37;;;1.30;;
18776;SDS011;9517;51.174;4.160;2024-03-29T05:11:57;7.33;;;1.70;;
18776;SDS011;9517;51.174;4.160;2024-03-29T05:14:25;9.77;;;1.77;;
18776;SDS011;9517;51.174;4.160;2024-03-29T05:16:53;8.30;;;1.43;;
18776;SDS011;9517;51.174;4.160;2024-03-29T05:19:20;9.60;;;1.70;;
18776;SDS011;9517;51.174;4.160;2024-03-29T05:21:47;7.37;;;1.20;;
18776;SDS011;9517;51.174;4.160;2024-03-29T05:24:14;9.63;;;1.40;;
18776;SDS011;9517;51.174;4.160;2024-03-29T05:26:42;7.97;;;1.40;;
18776;SDS011;9517;51.174;4.160;2024-03-29T05:29:09;8.07;;;1.30;;
18776;SDS011;9517;51.174;4.160;2024-03-29T05:31:38;5.07;;;1.37;;
18776;SDS011;9517;51.174;4.160;2024-03-29T05:34:06;6.63;;;1.20;;
18776;SDS011;9517;51.174;4.160;2024-03-29T05:36:34;6.33;;;1.10;;
18776;SDS011;9517;51.174;4.160;2024-03-29T05:39:08;6.43;;;1.47;;
18776;SDS011;9517;51.174;4.160;2024-03-29T05:41:35;5.80;;;1.40;;
18776;SDS011;9517;51.174;4.160;2024-03-29T05:44:12;5.77;;;1.70;;
18776;SDS011;9517;51.174;4.160;2024-03-29T05:56:10;5.37;;;1.07;;
18776;SDS011;9517;51.174;4.160;2024-03-29T05:58:38;6.83;;;1.70;;
18776;SDS011;9517;51.174;4.160;2024-03-29T06:01:43;6.13;;;1.50;;
18776;SDS011;9517;51.174;4.160;2024-03-29T06:04:10;5.07;;;1.30;;
18776;SDS011;9517;51.174;4.160;2024-03-29T06:06:47;6.40;;;1.43;;
18776;SDS011;9517;51.174;4.160;2024-03-29T06:09:27;6.37;;;1.60;;
18776;SDS011;9517;51.174;4.160;2024-03-29T06:11:55;7.03;;;1.40;;
18776;SDS011;9517;51.174;4.160;2024-03-29T06:14:23;6.20;;;1.27;;
18776;SDS011;9517;51.174;4.160;2024-03-29T06:17:07;8.77;;;1.57;;
18776;SDS011;9517;51.174;4.160;2024-03-29T06:19:56;5.30;;;1.43;;
18776;SDS011;9517;51.174;4.160;2024-03-29T06:22:30;5.97;;;1.03;;
18776;SDS011;9517;51.174;4.160;2024-03-29T06:25:10;6.33;;;1.03;;
18776;SDS011;9517;51.174;4.160;2024-03-29T06:27:40;9.53;;;2.37;;
18776;SDS011;9517;51.174;4.160;2024-03-29T06:30:13;4.87;;;1.10;;
18776;SDS011;9517;51.174;4.160;2024-03-29T06:32:40;5.90;;;1.00;;
18776;SDS011;9517;51.174;4.160;2024-03-29T06:35:11;3.87;;;0.77;;
18776;SDS011;9517;51.174;4.160;2024-03-29T06:37:41;4.10;;;0.80;;
18776;SDS011;9517;51.174;4.160;2024-03-29T06:40:12;3.30;;;1.03;;
18776;SDS011;9517;51.174;4.160;2024-03-29T06:42:42;2.10;;;0.63;;
18776;SDS011;9517;51.174;4.160;2024-03-29T06:45:11;4.53;;;0.90;;
18776;SDS011;9517;51.174;4.160;2024-03-29T06:47:38;4.80;;;0.70;;
18776;SDS011;9517;51.174;4.160;2024-03-29T06:50:14;2.80;;;0.67;;
18776;SDS011;9517;51.174;4.160;2024-03-29T06:52:45;4.93;;;1.27;;
18776;SDS011;9517;51.174;4.160;2024-03-29T06:55:14;2.90;;;0.70;;
18776;SDS011;9517;51.174;4.160;2024-03-29T06:57:43;3.67;;;0.70;;
18776;SDS011;9517;51.174;4.160;2024-03-29T07:00:13;3.50;;;0.87;;
18776;SDS011;9517;51.174;4.160;2024-03-29T07:02:43;2.07;;;0.50;;
18776;SDS011;9517;51.174;4.160;2024-03-29T07:05:31;4.53;;;0.73;;
18776;SDS011;9517;51.174;4.160;2024-03-29T07:08:36;4.30;;;0.83;;
18776;SDS011;9517;51.174;4.160;2024-03-29T07:11:43;2.53;;;0.70;;
18776;SDS011;9517;51.174;4.160;2024-03-29T07:14:28;4.10;;;0.70;;
18776;SDS011;9517;51.174;4.160;2024-03-29T07:17:02;2.33;;;0.60;;
18776;SDS011;9517;51.174;4.160;2024-03-29T07:19:30;2.63;;;0.73;;
18776;SDS011;9517;51.174;4.160;2024-03-29T07:22:32;5.97;;;0.70;;
18776;SDS011;9517;51.174;4.160;2024-03-29T07:25:32;2.03;;;0.63;;
18776;SDS011;9517;51.174;4.160;2024-03-29T07:52:38;3.53;;;0.90;;
18776;SDS011;9517;51.174;4.160;2024-03-29T07:55:23;4.80;;;0.90;;
18776;SDS011;9517;51.174;4.160;2024-03-29T07:57:57;2.63;;;0.80;;
18776;SDS011;9517;51.174;4.160;2024-03-29T08:00:30;3.27;;;0.93;;
18776;SDS011;9517;51.174;4.160;2024-03-29T08:02:58;4.47;;;1.30;;
18776;SDS011;9517;51.174;4.160;2024-03-29T08:05:27;6.13;;;1.50;;
18776;SDS011;9517;51.174;4.160;2024-03-29T08:07:54;4.97;;;1.33;;
18776;SDS011;9517;51.174;4.160;2024-03-29T08:10:22;5.03;;;1.50;;
18776;SDS011;9517;51.174;4.160;2024-03-29T08:12:49;5.50;;;1.63;;
18776;SDS011;9517;51.174;4.160;2024-03-29T08:15:16;6.23;;;1.73;;
18776;SDS011;9517;51.174;4.160;2024-03-29T08:17:44;6.30;;;1.77;;
18776;SDS011;9517;51.174;4.160;2024-03-29T08:20:12;8.47;;;2.57;;
18776;SDS011;9517;51.174;4.160;2024-03-29T08:22:40;8.97;;;1.80;;
18776;SDS011;9517;51.174;4.160;2024-03-29T08:25:08;6.07;;;1.53;;
18776;SDS011;9517;51.174;4.160;2024-03-29T08:27:35;7.63;;;1.60;;
18776;SDS011;9517;51.174;4.160;2024-03-29T08:30:02;5.93;;;1.50;;
18776;SDS011;9517;51.174;4.160;2024-03-29T08:32:30;7.13;;;1.60;;
18776;SDS011;9517;51.174;4.160;2024-03-29T08:34:58;6.67;;;1.43;;
18776;SDS011;9517;51.174;4.160;2024-03-29T08:37:27;6.93;;;1.57;;
18776;SDS011;9517;51.174;4.160;2024-03-29T08:39:57;7.50;;;1.90;;
18776;SDS011;9517;51.174;4.160;2024-03-29T08:42:24;7.20;;;1.93;;
18776;SDS011;9517;51.174;4.160;2024-03-29T08:44:51;7.47;;;1.83;;
18776;SDS011;9517;51.174;4.160;2024-03-29T08:47:19;9.60;;;1.70;;
18776;SDS011;9517;51.174;4.160;2024-03-29T08:49:46;9.63;;;1.70;;
18776;SDS011;9517;51.174;4.160;2024-03-29T08:52:13;8.93;;;1.87;;
18776;SDS011;9517;51.174;4.160;2024-03-29T08:54:42;5.77;;;1.67;;
18776;SDS011;9517;51.174;4.160;2024-03-29T08:57:11;12.20;;;2.53;;
18776;SDS011;9517;51.174;4.160;2024-03-29T08:59:38;6.93;;;1.97;;
18776;SDS011;9517;51.174;4.160;2024-03-29T09:02:06;9.53;;;1.80;;
18776;SDS011;9517;51.174;4.160;2024-03-29T09:04:33;6.57;;;2.13;;
18776;SDS011;9517;51.174;4.160;2024-03-29T09:07:00;10.07;;;2.17;;
18776;SDS011;9517;51.174;4.160;2024-03-29T09:09:29;8.57;;;2.00;;
18776;SDS011;9517;51.174;4.160;2024-03-29T09:11:58;7.40;;;1.90;;
18776;SDS011;9517;51.174;4.160;2024-03-29T09:14:26;5.07;;;1.63;;
18776;SDS011;9517;51.174;4.160;2024-03-29T09:16:54;7.33;;;1.97;;
18776;SDS011;9517;51.174;4.160;2024-03-29T09:19:21;10.67;;;2.03;;
18776;SDS011;9517;51.174;4.160;2024-03-29T09:21:49;6.27;;;1.80;;
18776;SDS011;9517;51.174;4.160;2024-03-29T09:24:16;8.83;;;2.03;;
18776;SDS011;9517;51.174;4.160;2024-03-29T09:26:48;7.80;;;2.00;;
18776;SDS011;9517;51.174;4.160;2024-03-29T09:29:15;8.60;;;2.20;;
18776;SDS011;9517;51.174;4.160;2024-03-29T09:31:45;7.07;;;1.40;;
18776;SDS011;9517;51.174;4.160;2024-03-29T09:34:13;6.67;;;1.70;;
18776;SDS011;9517;51.174;4.160;2024-03-29T09:36:40;9.63;;;2.07;;
18776;SDS011;9517;51.174;4.160;2024-03-29T09:39:07;7.43;;;1.90;;
18776;SDS011;9517;51.174;4.160;2024-03-29T09:41:34;5.03;;;1.47;;
18776;SDS011;9517;51.174;4.160;2024-03-29T09:44:04;5.57;;;1.57;;
18776;SDS011;9517;51.174;4.160;2024-03-29T09:46:33;5.17;;;1.43;;
18776;SDS011;9517;51.174;4.160;2024-03-29T09:49:03;4.47;;;1.40;;
18776;SDS011;9517;51.174;4.160;2024-03-29T09:51:32;7.60;;;2.00;;
18776;SDS011;9517;51.174;4.160;2024-03-29T09:54:00;7.80;;;1.73;;
18776;SDS011;9517;51.174;4.160;2024-03-29T09:56:29;6.57;;;1.40;;
18776;SDS011;9517;51.174;4.160;2024-03-29T09:58:57;6.23;;;1.40;;
18776;SDS011;9517;51.174;4.160;2024-03-29T10:01:24;6.00;;;1.60;;
18776;SDS011;9517;51.174;4.160;2024-03-29T10:03:53;3.13;;;1.10;;
18776;SDS011;9517;51.174;4.160;2024-03-29T10:06:24;5.77;;;1.60;;
18776;SDS011;9517;51.174;4.160;2024-03-29T10:08:53;3.97;;;1.20;;
18776;SDS011;9517;51.174;4.160;2024-03-29T10:11:23;3.77;;;1.30;;
18776;SDS011;9517;51.174;4.160;2024-03-29T10:13:50;4.17;;;1.27;;
18776;SDS011;9517;51.174;4.160;2024-03-29T10:16:18;5.13;;;1.37;;
18776;SDS011;9517;51.174;4.160;2024-03-29T10:18:48;7.13;;;1.60;;
18776;SDS011;9517;51.174;4.160;2024-03-29T10:21:15;7.07;;;1.60;;
18776;SDS011;9517;51.174;4.160;2024-03-29T10:23:44;4.00;;;1.13;;
18776;SDS011;9517;51.174;4.160;2024-03-29T10:26:13;5.63;;;1.30;;
18776;SDS011;9517;51.174;4.160;2024-03-29T10:28:40;5.40;;;1.20;;
18776;SDS011;9517;51.174;4.160;2024-03-29T10:31:09;4.27;;;1.33;;
18776;SDS011;9517;51.174;4.160;2024-03-29T10:33:39;4.37;;;1.20;;
18776;SDS011;9517;51.174;4.160;2024-03-29T10:36:09;3.10;;;1.10;;
18776;SDS011;9517;51.174;4.160;2024-03-29T10:38:37;4.70;;;1.30;;
18776;SDS011;9517;51.174;4.160;2024-03-29T10:41:06;4.27;;;1.10;;
18776;SDS011;9517;51.174;4.160;2024-03-29T10:43:34;4.03;;;1.30;;
18776;SDS011;9517;51.174;4.160;2024-03-29T10:46:02;4.20;;;1.23;;
18776;SDS011;9517;51.174;4.160;2024-03-29T10:48:30;4.67;;;1.37;;
18776;SDS011;9517;51.174;4.160;2024-03-29T10:51:01;5.40;;;1.60;;
18776;SDS011;9517;51.174;4.160;2024-03-29T10:53:29;3.13;;;1.17;;
18776;SDS011;9517;51.174;4.160;2024-03-29T10:56:04;4.03;;;1.20;;
18776;SDS011;9517;51.174;4.160;2024-03-29T10:58:38;4.57;;;1.30;;
18776;SDS011;9517;51.174;4.160;2024-03-29T11:01:09;4.33;;;1.00;;
18776;SDS011;9517;51.174;4.160;2024-03-29T11:03:41;5.10;;;1.50;;
18776;SDS011;9517;51.174;4.160;2024-03-29T11:06:16;4.13;;;1.10;;
18776;SDS011;9517;51.174;4.160;2024-03-29T11:08:50;3.40;;;1.10;;
18776;SDS011;9517;51.174;4.160;2024-03-29T11:11:22;5.33;;;1.27;;
18776;SDS011;9517;51.174;4.160;2024-03-29T11:13:52;4.97;;;1.20;;
18776;SDS011;9517;51.174;4.160;2024-03-29T11:16:25;4.87;;;0.93;;
18776;SDS011;9517;51.174;4.160;2024-03-29T11:18:52;2.83;;;0.90;;
18776;SDS011;9517;51.174;4.160;2024-03-29T11:21:21;3.70;;;1.10;;
18776;SDS011;9517;51.174;4.160;2024-03-29T11:23:52;4.37;;;1.03;;
18776;SDS011;9517;51.174;4.160;2024-03-29T11:26:22;3.13;;;0.90;;
18776;SDS011;9517;51.174;4.160;2024-03-29T11:28:48;4.63;;;1.63;;
18776;SDS011;9517;51.174;4.160;2024-03-29T11:31:16;4.83;;;1.20;;
18776;SDS011;9517;51.174;4.160;2024-03-29T11:33:44;2.60;;;1.00;;
18776;SDS011;9517;51.174;4.160;2024-03-29T11:36:14;3.70;;;1.00;;
18776;SDS011;9517;51.174;4.160;2024-03-29T11:38:44;3.17;;;1.07;;
18776;SDS011;9517;51.174;4.160;2024-03-29T11:41:13;3.57;;;1.00;;
18776;SDS011;9517;51.174;4.160;2024-03-29T11:43:42;4.30;;;1.10;;
18776;SDS011;9517;51.174;4.160;2024-03-29T11:46:11;3.40;;;0.90;;
18776;SDS011;9517;51.174;4.160;2024-03-29T11:48:39;3.30;;;1.00;;
18776;SDS011;9517;51.174;4.160;2024-03-29T11:51:07;3.23;;;1.00;;
18776;SDS011;9517;51.174;4.160;2024-03-29T11:53:36;1.70;;;0.70;;
18776;SDS011;9517;51.174;4.160;2024-03-29T11:56:03;3.90;;;0.90;;
18776;SDS011;9517;51.174;4.160;2024-03-29T11:58:32;2.33;;;0.87;;
18776;SDS011;9517;51.174;4.160;2024-03-29T12:01:02;3.47;;;0.97;;
18776;SDS011;9517;51.174;4.160;2024-03-29T12:03:30;5.80;;;1.00;;
18776;SDS011;9517;51.174;4.160;2024-03-29T12:05:59;4.63;;;0.80;;
18776;SDS011;9517;51.174;4.160;2024-03-29T12:08:28;2.97;;;0.80;;
18776;SDS011;9517;51.174;4.160;2024-03-29T12:10:57;3.27;;;0.90;;
18776;SDS011;9517;51.174;4.160;2024-03-29T12:13:26;2.37;;;0.60;;
18776;SDS011;9517;51.174;4.160;2024-03-29T12:15:53;3.37;;;0.70;;
18776;SDS011;9517;51.174;4.160;2024-03-29T12:18:23;5.00;;;0.83;;
18776;SDS011;9517;51.174;4.160;2024-03-29T12:20:51;1.40;;;0.60;;
18776;SDS011;9517;51.174;4.160;2024-03-29T12:23:19;5.20;;;0.80;;
18776;SDS011;9517;51.174;4.160;2024-03-29T12:25:47;1.63;;;0.60;;
18776;SDS011;9517;51.174;4.160;2024-03-29T12:28:16;2.37;;;0.70;;
18776;SDS011;9517;51.174;4.160;2024-03-29T12:30:43;1.60;;;0.50;;
18776;SDS011;9517;51.174;4.160;2024-03-29T12:33:12;2.57;;;0.80;;
18776;SDS011;9517;51.174;4.160;2024-03-29T12:35:42;1.73;;;0.60;;
18776;SDS011;9517;51.174;4.160;2024-03-29T12:38:11;3.70;;;0.80;;
18776;SDS011;9517;51.174;4.160;2024-03-29T12:40:40;3.13;;;0.70;;
18776;SDS011;9517;51.174;4.160;2024-03-29T12:43:08;1.60;;;0.77;;
18776;SDS011;9517;51.174;4.160;2024-03-29T12:45:37;4.40;;;0.80;;
18776;SDS011;9517;51.174;4.160;2024-03-29T12:48:09;3.67;;;0.80;;
18776;SDS011;9517;51.174;4.160;2024-03-29T12:50:39;2.27;;;0.70;;
18776;SDS011;9517;51.174;4.160;2024-03-29T12:53:09;2.20;;;0.70;;
18776;SDS011;9517;51.174;4.160;2024-03-29T12:55:40;3.50;;;0.70;;
18776;SDS011;9517;51.174;4.160;2024-03-29T12:58:10;3.33;;;0.57;;
18776;SDS011;9517;51.174;4.160;2024-03-29T13:00:38;2.43;;;0.60;;
18776;SDS011;9517;51.174;4.160;2024-03-29T13:03:10;2.53;;;0.80;;
18776;SDS011;9517;51.174;4.160;2024-03-29T13:05:38;1.67;;;0.50;;
18776;SDS011;9517;51.174;4.160;2024-03-29T13:08:08;2.37;;;0.43;;
18776;SDS011;9517;51.174;4.160;2024-03-29T13:10:36;2.43;;;0.50;;
18776;SDS011;9517;51.174;4.160;2024-03-29T13:13:04;1.37;;;0.47;;
18776;SDS011;9517;51.174;4.160;2024-03-29T13:15:32;1.77;;;0.50;;
18776;SDS011;9517;51.174;4.160;2024-03-29T13:18:00;3.80;;;0.70;;
18776;SDS011;9517;51.174;4.160;2024-03-29T13:20:29;2.43;;;0.57;;
18776;SDS011;9517;51.174;4.160;2024-03-29T13:22:57;3.40;;;0.70;;
18776;SDS011;9517;51.174;4.160;2024-03-29T13:25:26;2.27;;;0.50;;
18776;SDS011;9517;51.174;4.160;2024-03-29T13:27:54;3.10;;;0.60;;
18776;SDS011;9517;51.174;4.160;2024-03-29T13:30:22;2.30;;;0.50;;
18776;SDS011;9517;51.174;4.160;2024-03-29T13:32:50;3.07;;;0.83;;
18776;SDS011;9517;51.174;4.160;2024-03-29T13:35:18;2.90;;;0.50;;
18776;SDS011;9517;51.174;4.160;2024-03-29T13:37:47;1.00;;;0.50;;
18776;SDS011;9517;51.174;4.160;2024-03-29T13:40:15;3.30;;;0.87;;
18776;SDS011;9517;51.174;4.160;2024-03-29T13:42:44;3.93;;;0.90;;
18776;SDS011;9517;51.174;4.160;2024-03-29T13:45:12;2.37;;;0.70;;
18776;SDS011;9517;51.174;4.160;2024-03-29T13:47:39;3.20;;;0.70;;
18776;SDS011;9517;51.174;4.160;2024-03-29T13:50:07;4.40;;;0.80;;
18776;SDS011;9517;51.174;4.160;2024-03-29T13:52:36;3.53;;;0.70;;
18776;SDS011;9517;51.174;4.160;2024-03-29T13:55:04;2.57;;;0.73;;
18776;SDS011;9517;51.174;4.160;2024-03-29T13:57:31;4.87;;;0.80;;
18776;SDS011;9517;51.174;4.160;2024-03-29T14:00:00;3.07;;;0.90;;
18776;SDS011;9517;51.174;4.160;2024-03-29T14:02:30;2.67;;;0.70;;
18776;SDS011;9517;51.174;4.160;2024-03-29T14:04:58;3.40;;;0.80;;
18776;SDS011;9517;51.174;4.160;2024-03-29T14:07:26;3.30;;;0.80;;
18776;SDS011;9517;51.174;4.160;2024-03-29T14:09:53;3.47;;;0.90;;
18776;SDS011;9517;51.174;4.160;2024-03-29T14:12:20;5.43;;;0.90;;
18776;SDS011;9517;51.174;4.160;2024-03-29T14:14:49;2.13;;;0.60;;
18776;SDS011;9517;51.174;4.160;2024-03-29T14:17:19;3.63;;;0.80;;
18776;SDS011;9517;51.174;4.160;2024-03-29T14:19:46;2.67;;;0.70;;
18776;SDS011;9517;51.174;4.160;2024-03-29T14:22:15;3.97;;;1.10;;
18776;SDS011;9517;51.174;4.160;2024-03-29T14:24:44;3.87;;;0.70;;
18776;SDS011;9517;51.174;4.160;2024-03-29T14:27:11;1.90;;;0.77;;
18776;SDS011;9517;51.174;4.160;2024-03-29T14:29:39;2.97;;;0.80;;
18776;SDS011;9517;51.174;4.160;2024-03-29T14:32:09;5.63;;;0.60;;
18776;SDS011;9517;51.174;4.160;2024-03-29T14:34:38;3.93;;;0.80;;
18776;SDS011;9517;51.174;4.160;2024-03-29T14:37:11;2.33;;;0.73;;
18776;SDS011;9517;51.174;4.160;2024-03-29T14:39:41;1.80;;;0.50;;
18776;SDS011;9517;51.174;4.160;2024-03-29T14:42:09;4.10;;;0.77;;
18776;SDS011;9517;51.174;4.160;2024-03-29T14:44:39;1.50;;;0.53;;
18776;SDS011;9517;51.174;4.160;2024-03-29T14:47:06;4.30;;;0.73;;
18776;SDS011;9517;51.174;4.160;2024-03-29T14:49:33;3.73;;;0.60;;
18776;SDS011;9517;51.174;4.160;2024-03-29T14:52:02;2.60;;;0.80;;
18776;SDS011;9517;51.174;4.160;2024-03-29T14:54:30;2.73;;;0.70;;
18776;SDS011;9517;51.174;4.160;2024-03-29T14:56:57;2.60;;;0.70;;
18776;SDS011;9517;51.174;4.160;2024-03-29T15:19:51;6.03;;;0.73;;
18776;SDS011;9517;51.174;4.160;2024-03-29T15:22:24;2.37;;;0.70;;
18776;SDS011;9517;51.174;4.160;2024-03-29T15:25:14;4.53;;;0.60;;
18776;SDS011;9517;51.174;4.160;2024-03-29T15:27:55;1.17;;;0.50;;
18776;SDS011;9517;51.174;4.160;2024-03-29T15:30:43;3.00;;;0.60;;
18776;SDS011;9517;51.174;4.160;2024-03-29T15:33:20;1.97;;;0.50;;
18776;SDS011;9517;51.174;4.160;2024-03-29T15:35:59;5.83;;;0.90;;
18776;SDS011;9517;51.174;4.160;2024-03-29T15:38:26;3.07;;;0.77;;
18776;SDS011;9517;51.174;4.160;2024-03-29T15:40:56;3.07;;;0.50;;
18776;SDS011;9517;51.174;4.160;2024-03-29T15:43:23;5.90;;;0.70;;
18776;SDS011;9517;51.174;4.160;2024-03-29T15:45:51;3.50;;;0.73;;
18776;SDS011;9517;51.174;4.160;2024-03-29T15:48:18;3.83;;;0.70;;
18776;SDS011;9517;51.174;4.160;2024-03-29T15:50:46;1.23;;;0.43;;
18776;SDS011;9517;51.174;4.160;2024-03-29T15:53:15;6.53;;;0.70;;
18776;SDS011;9517;51.174;4.160;2024-03-29T15:55:43;3.67;;;0.67;;
18776;SDS011;9517;51.174;4.160;2024-03-29T15:58:11;4.53;;;0.80;;
18776;SDS011;9517;51.174;4.160;2024-03-29T16:00:38;5.03;;;0.80;;
18776;SDS011;9517;51.174;4.160;2024-03-29T16:03:10;2.40;;;0.70;;
18776;SDS011;9517;51.174;4.160;2024-03-29T16:08:07;3.60;;;0.83;;